MiSS Monie — WCZ9166 — position and weather

sailwx.info

Track history (hours):
 
Tides and Currents Weather Stations Pressure Air Temp Water Temp Dewpoint Dewpoint Depression Visibility Wind Speed Wind Dir Waves Ship Positions

MiSS Monie

Owner: MISS MONIE TOWING LLC, HULL, TX. More information available from US FCC via Universal Licensing System and Coast Guard Vessel Documentation Center.

Last reported at 2018-Feb-19 13:16 UTC. Time now 2018-Feb-23 08:33 UTC.
Position N 29°45' W 095°10'.

Length 20 m.

Type: Ship. MMSI: 366962010.

Date/timePositionNaut miles runAvg speedWind from/ knotsBaromVisibWave heightAir tempDewpointWater temp
2018-Feb-19 13:16N 29°45' W 095°10'0 0.5
2018-Feb-19 12:48N 29°45' W 095°11'0 0.0
2018-Feb-19 10:37N 29°45' W 095°11'0 0.0
2018-Feb-19 10:29N 29°45' W 095°11'0 0.0
2018-Feb-19 09:56N 29°45' W 095°11'0 0.0
2018-Feb-19 09:30N 29°45' W 095°11'0 0.0
2018-Feb-19 08:53N 29°45' W 095°11'0 0.0
2018-Feb-19 08:30N 29°45' W 095°11'0 0.0
2018-Feb-19 07:59N 29°45' W 095°11'0 0.0
2018-Feb-19 07:30N 29°45' W 095°11'0 0.0
2018-Feb-19 07:00N 29°45' W 095°11'0 0.0
2018-Feb-19 06:29N 29°45' W 095°11'0 0.0
2018-Feb-19 06:00N 29°45' W 095°11'0 0.0
2018-Feb-19 05:30N 29°45' W 095°11'0 0.0
2018-Feb-18 16:19N 29°45' W 095°10'0 0.0
2018-Feb-18 15:52N 29°45' W 095°10'5 0.1
2018-Feb-16 18:35N 29°47' W 095°05'0 0.0
2018-Feb-16 18:26N 29°47' W 095°05'1 1.2
2018-Feb-16 17:58N 29°47' W 095°05'4 0.3
2018-Feb-16 04:14N 29°44' W 095°08'2 6.2
2018-Feb-16 03:58N 29°45' W 095°06'1 1.5
2018-Feb-16 03:15N 29°46' W 095°05'1 2.5
2018-Feb-16 02:53N 29°47' W 095°05'1 3.3
2018-Feb-16 02:30N 29°46' W 095°06'1 0.0
2018-Feb-15 09:24N 29°46' W 095°06'0 0.0
2018-Feb-15 08:36N 29°46' W 095°06'0 0.0
2018-Feb-15 08:15N 29°46' W 095°06'0 0.0
2018-Feb-15 07:48N 29°46' W 095°06'0 0.0
2018-Feb-15 07:19N 29°46' W 095°06'0 0.0
2018-Feb-15 06:57N 29°46' W 095°06'0 0.0
2018-Feb-15 06:30N 29°46' W 095°06'0 0.0
2018-Feb-15 06:00N 29°46' W 095°06'0 0.0
2018-Feb-15 05:28N 29°46' W 095°06'0 0.0
2018-Feb-15 05:00N 29°46' W 095°06'0 0.0
2018-Feb-15 04:14N 29°46' W 095°06'0 0.0
2018-Feb-15 04:00N 29°46' W 095°06'0 0.0
2018-Feb-15 03:09N 29°46' W 095°06'0 0.0
2018-Feb-15 02:59N 29°46' W 095°06'0 0.0
2018-Feb-14 17:45N 29°46' W 095°06'1 1.7
2018-Feb-14 17:10N 29°47' W 095°06'0 1.1
2018-Feb-14 16:59N 29°47' W 095°06'6 0.1
2018-Feb-12 19:57N 29°43' W 095°01'2 3.9
2018-Feb-12 19:27N 29°42' W 094°60'2 4.2
2018-Feb-12 19:00N 29°40' W 094°58'2 4.5
2018-Feb-12 18:29N 29°38' W 094°58'2 4.9
2018-Feb-12 18:00N 29°36' W 094°57'3 4.8
2018-Feb-12 17:29N 29°34' W 094°55'  
Track history (hours):
 
Tides and Currents Weather Stations Pressure Air Temp Water Temp Dewpoint Dewpoint Depression Visibility Wind Speed Wind Dir Waves Ship Positions

MiSS Monie

Owner: MISS MONIE TOWING LLC, HULL, TX. More information available from US FCC via Universal Licensing System and Coast Guard Vessel Documentation Center.

Last reported at 2018-Feb-19 13:16 UTC. Time now 2018-Feb-23 08:33 UTC.
Position N 29°45' W 095°10'.

Length 20 m.

Type: Ship. MMSI: 366962010.

Date/timePositionNaut miles runAvg speedWind from/ knotsBaromVisibWave heightAir tempDewpointWater temp
2018-Feb-19 13:16N 29°45' W 095°10'0 0.5
2018-Feb-19 12:48N 29°45' W 095°11'0 0.0
2018-Feb-19 10:37N 29°45' W 095°11'0 0.0
2018-Feb-19 10:29N 29°45' W 095°11'0 0.0
2018-Feb-19 09:56N 29°45' W 095°11'0 0.0
2018-Feb-19 09:30N 29°45' W 095°11'0 0.0
2018-Feb-19 08:53N 29°45' W 095°11'0 0.0
2018-Feb-19 08:30N 29°45' W 095°11'0 0.0
2018-Feb-19 07:59N 29°45' W 095°11'0 0.0
2018-Feb-19 07:30N 29°45' W 095°11'0 0.0
2018-Feb-19 07:00N 29°45' W 095°11'0 0.0
2018-Feb-19 06:29N 29°45' W 095°11'0 0.0
2018-Feb-19 06:00N 29°45' W 095°11'0 0.0
2018-Feb-19 05:30N 29°45' W 095°11'0 0.0
2018-Feb-18 16:19N 29°45' W 095°10'0 0.0
2018-Feb-18 15:52N 29°45' W 095°10'5 0.1
2018-Feb-16 18:35N 29°47' W 095°05'0 0.0
2018-Feb-16 18:26N 29°47' W 095°05'1 1.2
2018-Feb-16 17:58N 29°47' W 095°05'4 0.3
2018-Feb-16 04:14N 29°44' W 095°08'2 6.2
2018-Feb-16 03:58N 29°45' W 095°06'1 1.5
2018-Feb-16 03:15N 29°46' W 095°05'1 2.5
2018-Feb-16 02:53N 29°47' W 095°05'1 3.3
2018-Feb-16 02:30N 29°46' W 095°06'1 0.0
2018-Feb-15 09:24N 29°46' W 095°06'0 0.0
2018-Feb-15 08:36N 29°46' W 095°06'0 0.0
2018-Feb-15 08:15N 29°46' W 095°06'0 0.0
2018-Feb-15 07:48N 29°46' W 095°06'0 0.0
2018-Feb-15 07:19N 29°46' W 095°06'0 0.0
2018-Feb-15 06:57N 29°46' W 095°06'0 0.0
2018-Feb-15 06:30N 29°46' W 095°06'0 0.0
2018-Feb-15 06:00N 29°46' W 095°06'0 0.0
2018-Feb-15 05:28N 29°46' W 095°06'0 0.0
2018-Feb-15 05:00N 29°46' W 095°06'0 0.0
2018-Feb-15 04:14N 29°46' W 095°06'0 0.0
2018-Feb-15 04:00N 29°46' W 095°06'0 0.0
2018-Feb-15 03:09N 29°46' W 095°06'0 0.0
2018-Feb-15 02:59N 29°46' W 095°06'0 0.0
2018-Feb-14 17:45N 29°46' W 095°06'1 1.7
2018-Feb-14 17:10N 29°47' W 095°06'0 1.1
2018-Feb-14 16:59N 29°47' W 095°06'6 0.1
2018-Feb-12 19:57N 29°43' W 095°01'2 3.9
2018-Feb-12 19:27N 29°42' W 094°60'2 4.2
2018-Feb-12 19:00N 29°40' W 094°58'2 4.5
2018-Feb-12 18:29N 29°38' W 094°58'2 4.9
2018-Feb-12 18:00N 29°36' W 094°57'3 4.8
2018-Feb-12 17:29N 29°34' W 094°55'  

Dump ship's entire track history